Time;durP1;ratioP1;P1;durP2;ratioP2;P2;SDS_P1;SDS_P2;PMS_P1;PMS_P2;Temp;Humidity;BMP_temperature;BMP_pressure;BME280_temperature;BME280_humidity;BME280_pressure;Samples;Min_cycle;Max_cycle;Signal;HPM_P1;HPM_P2
2023/09/04 00:01:13;;;;;;;2.40;2.33;;;;;;;21.19;70.42;96981.59;5003730;28;20057;-63
2023/09/04 00:03:40;;;;;;;2.20;2.20;;;;;;;21.24;70.41;96964.16;5003364;28;20064;-63
2023/09/04 00:06:06;;;;;;;2.13;2.13;;;;;;;21.38;69.68;96960.97;5002034;28;20053;-63
2023/09/04 00:08:33;;;;;;;2.10;2.10;;;;;;;21.60;68.68;96984.53;5002025;28;20049;-63
2023/09/04 00:11:00;;;;;;;2.08;2.08;;;;;;;21.38;69.10;96944.06;5002992;28;20054;-63
2023/09/04 00:13:26;;;;;;;2.17;2.17;;;;;;;21.00;69.78;96934.59;5003552;28;20064;-63
2023/09/04 00:15:56;;;;;;;2.50;2.40;;;;;;;21.38;70.55;96969.44;5003151;28;20073;-62
2023/09/04 00:18:23;;;;;;;2.08;2.08;;;;;;;21.51;69.93;96970.28;5003335;28;20488;-63
2023/09/04 00:20:53;;;;;;;2.20;2.20;;;;;;;21.14;72.61;96979.31;5001559;28;20073;-63
2023/09/04 00:23:20;;;;;;;2.10;2.10;;;;;;;20.11;82.09;96980.06;5001604;28;20049;-63
2023/09/04 00:25:47;;;;;;;1.80;1.80;;;;;;;19.43;91.08;96939.69;5001673;28;20343;-63
2023/09/04 00:28:13;;;;;;;2.08;2.08;;;;;;;18.86;99.39;96973.59;5002984;28;20049;-62
2023/09/04 00:30:42;;;;;;;1.85;1.85;;;;;;;18.52;100.00;96969.34;5003815;28;20061;-63
2023/09/04 00:33:09;;;;;;;1.90;1.90;;;;;;;18.27;100.00;96958.47;5002781;28;20104;-63
2023/09/04 00:35:35;;;;;;;2.00;2.00;;;;;;;18.08;100.00;96959.16;5004283;28;20053;-63
2023/09/04 00:38:02;;;;;;;2.00;2.00;;;;;;;17.78;100.00;96884.25;5004213;28;20531;-63
2023/09/04 00:40:29;;;;;;;1.85;1.85;;;;;;;18.20;100.00;96941.75;5004791;28;20049;-63
2023/09/04 00:42:55;;;;;;;1.90;1.90;;;;;;;18.25;100.00;96921.63;5004157;28;20058;-63
2023/09/04 00:45:22;;;;;;;1.90;1.90;;;;;;;18.31;100.00;96936.78;5002930;28;20046;-63
2023/09/04 00:47:50;;;;;;;1.75;1.75;;;;;;;18.38;100.00;96931.09;5004563;28;20057;-65
2023/09/04 00:50:23;;;;;;;1.83;1.83;;;;;;;18.19;100.00;96923.34;5002992;28;20054;-64
2023/09/04 00:52:57;;;;;;;2.00;2.00;;;;;;;18.26;100.00;96909.19;5004176;28;20053;-64
2023/09/04 00:55:25;;;;;;;1.90;1.90;;;;;;;18.50;100.00;96926.88;5002434;28;20506;-63
2023/09/04 00:57:52;;;;;;;2.00;2.00;;;;;;;18.56;100.00;96937.19;5002177;28;20098;-63
2023/09/04 01:00:22;;;;;;;1.80;1.80;;;;;;;18.55;100.00;96929.22;5003725;28;20504;-63
2023/09/04 01:02:50;;;;;;;2.00;2.00;;;;;;;18.58;100.00;96923.56;5003780;28;20056;-63
2023/09/04 01:05:17;;;;;;;1.80;1.80;;;;;;;18.36;100.00;96885.81;5004061;28;20061;-64
2023/09/04 01:07:44;;;;;;;2.00;2.00;;;;;;;18.60;100.00;96920.31;5003601;28;20517;-64
2023/09/04 01:10:12;;;;;;;1.80;1.80;;;;;;;18.69;100.00;96929.78;5002320;28;20053;-64
2023/09/04 01:13:03;;;;;;;1.67;1.67;;;;;;;18.73;100.00;96922.09;5004026;28;20049;-63
2023/09/04 01:15:31;;;;;;;1.98;1.98;;;;;;;18.68;100.00;96925.41;5003652;28;20057;-62
2023/09/04 01:17:59;;;;;;;2.05;2.05;;;;;;;18.70;100.00;96903.28;5002181;28;20052;-64
2023/09/04 01:20:28;;;;;;;1.90;1.90;;;;;;;18.61;100.00;96905.88;5003069;28;20057;-64
2023/09/04 01:22:56;;;;;;;2.00;2.00;;;;;;;18.70;100.00;96897.69;5002042;28;20463;-64
2023/09/04 01:25:48;;;;;;;1.90;1.90;;;;;;;18.32;100.00;96887.88;5000913;28;20085;-64
2023/09/04 01:28:28;;;;;;;1.88;1.88;;;;;;;18.60;100.00;96887.44;5002418;28;20061;-64
2023/09/04 01:31:11;;;;;;;1.98;1.98;;;;;;;18.63;100.00;96886.59;5002221;28;20129;-66
2023/09/04 01:33:40;;;;;;;;;;;;;;;18.48;100.00;96890.84;5001509;28;20057;-65
2023/09/04 01:36:13;;;;;;;1.85;1.85;;;;;;;18.32;100.00;96879.44;5000906;28;19930;-64
2023/09/04 01:38:42;;;;;;;2.00;2.00;;;;;;;17.94;100.00;96822.00;5002340;28;20052;-64
2023/09/04 01:41:09;;;;;;;1.85;1.85;;;;;;;18.35;100.00;96870.22;5002313;28;20064;-64
2023/09/04 01:43:36;;;;;;;1.88;1.88;;;;;;;18.31;100.00;96869.47;5001672;28;20058;-64
2023/09/04 01:46:03;;;;;;;1.85;1.85;;;;;;;17.92;100.00;96813.22;5001619;28;20062;-64
2023/09/04 01:48:30;;;;;;;2.00;2.00;;;;;;;18.17;100.00;96843.66;5002079;28;20085;-64
2023/09/04 01:50:56;;;;;;;1.70;1.70;;;;;;;18.07;100.00;96859.41;5000133;28;20395;-65
2023/09/04 01:53:23;;;;;;;1.85;1.85;;;;;;;17.96;100.00;96836.38;5001548;28;20535;-64
2023/09/04 01:55:50;;;;;;;1.77;1.77;;;;;;;17.99;100.00;96843.91;5001059;28;20452;-65
2023/09/04 01:58:16;;;;;;;1.80;1.80;;;;;;;18.11;100.00;96843.34;5002221;28;20057;-64
2023/09/04 02:00:46;;;;;;;1.90;1.90;;;;;;;18.16;100.00;96845.69;5001896;28;20057;-64
2023/09/04 02:03:13;;;;;;;1.80;1.80;;;;;;;18.26;100.00;96844.69;5001526;28;20549;-66
2023/09/04 02:05:40;;;;;;;1.70;1.70;;;;;;;17.68;100.00;96758.34;5001370;28;20045;-65
2023/09/04 02:08:07;;;;;;;1.60;1.60;;;;;;;18.23;100.00;96839.94;5001604;28;20555;-65
2023/09/04 02:10:35;;;;;;;2.05;2.05;;;;;;;18.34;100.00;96834.94;5001140;28;20063;-64
2023/09/04 02:13:02;;;;;;;1.88;1.88;;;;;;;17.95;100.00;96761.91;5001130;28;20337;-64
2023/09/04 02:15:29;;;;;;;1.63;1.63;;;;;;;18.35;100.00;96824.53;4999684;28;20100;-64
2023/09/04 02:17:56;;;;;;;1.83;1.83;;;;;;;18.38;100.00;96823.69;5001235;28;20536;-64
2023/09/04 02:20:23;;;;;;;1.60;1.60;;;;;;;16.68;100.00;96555.09;4999600;28;20061;-64
2023/09/04 02:22:49;;;;;;;1.77;1.77;;;;;;;18.51;100.00;96819.84;5000986;28;20046;-64
2023/09/04 02:25:16;;;;;;;1.63;1.63;;;;;;;18.48;100.00;96829.13;4999411;28;20057;-64
2023/09/04 02:27:43;;;;;;;1.67;1.67;;;;;;;18.49;100.00;96818.72;4984954;28;20441;-65
2023/09/04 02:30:10;;;;;;;1.67;1.67;;;;;;;18.51;100.00;96825.47;4988553;28;20428;-64
2023/09/04 02:32:36;;;;;;;2.03;2.03;;;;;;;18.12;100.00;96755.22;4999080;28;20062;-64
2023/09/04 02:35:03;;;;;;;1.90;1.90;;;;;;;17.88;100.00;96801.25;4999249;28;20054;-66
2023/09/04 02:37:30;;;;;;;2.00;2.00;;;;;;;16.00;100.00;96493.69;5001086;28;20057;-65
2023/09/04 02:39:57;;;;;;;2.00;2.00;;;;;;;18.04;100.00;96813.41;5000999;28;20050;-64
2023/09/04 02:42:23;;;;;;;1.70;1.70;;;;;;;17.99;100.00;96815.91;5001028;28;20046;-64
2023/09/04 02:44:50;;;;;;;1.80;1.80;;;;;;;18.17;100.00;96818.41;5000410;28;20054;-64
2023/09/04 02:47:17;;;;;;;2.00;2.00;;;;;;;18.21;100.00;96814.34;4999383;28;20061;-63
2023/09/04 02:49:43;;;;;;;1.83;1.83;;;;;;;17.86;100.00;96747.66;4999359;28;20058;-64
2023/09/04 02:52:11;;;;;;;1.67;1.67;;;;;;;18.33;100.00;96816.56;5000946;28;20058;-64
2023/09/04 02:54:38;;;;;;;1.98;1.98;;;;;;;18.39;100.00;96830.91;5000256;28;20058;-64
2023/09/04 02:57:04;;;;;;;2.10;2.10;;;;;;;18.18;100.00;96778.75;5001174;28;20050;-64
2023/09/04 02:59:34;;;;;;;1.75;1.75;;;;;;;18.48;100.00;96817.91;5000200;28;20169;-64
2023/09/04 03:02:01;;;;;;;1.95;1.95;;;;;;;18.54;100.00;96816.19;5000539;28;20050;-65
2023/09/04 03:04:29;;;;;;;2.00;2.00;;;;;;;18.53;100.00;96806.19;5000085;28;20519;-64
2023/09/04 03:06:56;;;;;;;1.88;1.88;;;;;;;18.54;100.00;96816.19;4999145;28;20053;-64
2023/09/04 03:09:22;;;;;;;1.90;1.90;;;;;;;18.53;100.00;96814.63;4999023;28;20050;-64
2023/09/04 03:11:49;;;;;;;1.88;1.88;;;;;;;18.50;100.00;96809.88;4999212;28;20076;-64
2023/09/04 03:14:16;;;;;;;1.67;1.67;;;;;;;18.48;100.00;96803.88;4999286;28;20430;-64
2023/09/04 03:16:43;;;;;;;1.85;1.85;;;;;;;18.27;100.00;96809.84;4999263;28;20058;-64
2023/09/04 03:19:09;;;;;;;2.05;2.05;;;;;;;18.15;100.00;96810.44;5000872;28;20061;-64
2023/09/04 03:21:36;;;;;;;2.03;2.03;;;;;;;18.35;100.00;96810.50;4999484;28;20957;-64
2023/09/04 03:24:03;;;;;;;1.83;1.83;;;;;;;18.45;100.00;96807.53;5000983;28;20050;-63
2023/09/04 03:26:30;;;;;;;1.77;1.77;;;;;;;18.54;100.00;96809.81;4999323;28;20080;-63
2023/09/04 03:28:57;;;;;;;1.73;1.73;;;;;;;18.63;100.00;96813.66;4999430;28;20513;-64
2023/09/04 03:31:23;;;;;;;1.80;1.80;;;;;;;18.65;100.00;96811.19;4999190;28;20054;-64
2023/09/04 03:33:50;;;;;;;1.75;1.75;;;;;;;18.25;100.00;96809.47;5000817;28;20081;-64
2023/09/04 03:36:17;;;;;;;1.90;1.90;;;;;;;18.26;100.00;96810.28;5000801;28;20046;-64
2023/09/04 03:38:44;;;;;;;2.00;2.00;;;;;;;18.05;100.00;96808.63;4999601;28;20057;-64
2023/09/04 03:41:10;;;;;;;1.80;1.80;;;;;;;17.59;100.00;96814.13;5001417;28;20496;-64
2023/09/04 03:43:37;;;;;;;1.60;1.60;;;;;;;18.00;100.00;96820.31;5000054;28;20756;-64
2023/09/04 03:46:04;;;;;;;1.67;1.67;;;;;;;17.96;100.00;96777.50;5004190;28;20089;-64
2023/09/04 03:48:30;;;;;;;1.83;1.83;;;;;;;18.34;100.00;96823.72;5005623;28;20602;-64
2023/09/04 03:50:59;;;;;;;1.80;1.80;;;;;;;18.43;100.00;96832.41;5005379;28;20054;-64
2023/09/04 03:53:26;;;;;;;1.85;1.85;;;;;;;18.31;100.00;96841.41;5005272;28;20509;-64
2023/09/04 03:55:52;;;;;;;1.73;1.73;;;;;;;18.31;100.00;96830.19;5003591;28;20064;-64
2023/09/04 03:58:19;;;;;;;1.80;1.80;;;;;;;18.38;100.00;96835.72;5005697;28;20060;-63
2023/09/04 04:00:55;;;;;;;1.77;1.77;;;;;;;18.44;100.00;96836.03;5005177;28;20056;-64
2023/09/04 04:03:22;;;;;;;1.90;1.90;;;;;;;18.42;100.00;96839.25;5004581;28;20046;-64
2023/09/04 04:05:48;;;;;;;2.17;2.17;;;;;;;18.31;100.00;96802.16;5004234;28;20551;-65
2023/09/04 04:08:15;;;;;;;1.80;1.80;;;;;;;17.96;100.00;96774.69;5004414;28;20048;-64
2023/09/04 04:10:44;;;;;;;1.73;1.73;;;;;;;18.55;100.00;96812.19;5000741;28;20050;-64
2023/09/04 04:13:10;;;;;;;2.00;2.00;;;;;;;18.75;100.00;96827.03;4983420;28;20060;-64
2023/09/04 04:15:38;;;;;;;1.88;1.88;;;;;;;18.87;100.00;96829.25;4984883;28;20052;-64
2023/09/04 04:18:09;;;;;;;2.20;2.20;;;;;;;19.02;100.00;96819.31;4985175;28;20538;-65
2023/09/04 04:20:36;;;;;;;1.85;1.85;;;;;;;18.87;100.00;96786.34;4985227;28;20077;-64
2023/09/04 04:23:03;;;;;;;2.10;2.10;;;;;;;18.93;100.00;96774.19;4985667;28;20811;-64
2023/09/04 04:25:30;;;;;;;2.05;2.05;;;;;;;19.31;100.00;96820.38;4985052;28;20105;-65
2023/09/04 04:27:56;;;;;;;1.90;1.90;;;;;;;19.58;100.00;96839.88;4985832;28;20495;-64
2023/09/04 04:30:23;;;;;;;1.98;1.98;;;;;;;19.62;100.00;96828.56;4993569;28;20046;-64
2023/09/04 04:32:51;;;;;;;2.10;2.10;;;;;;;19.73;100.00;96832.69;5004940;28;20066;-64
2023/09/04 04:35:18;;;;;;;1.90;1.90;;;;;;;19.68;100.00;96826.81;5003057;28;20560;-65
2023/09/04 04:37:44;;;;;;;2.05;2.05;;;;;;;19.70;100.00;96825.13;5002868;28;20061;-64
2023/09/04 04:40:11;;;;;;;2.00;2.00;;;;;;;18.10;100.00;96539.78;4994605;28;20069;-64
2023/09/04 04:42:39;;;;;;;1.90;1.90;;;;;;;19.79;99.31;96800.00;5023324;28;20302;-64
2023/09/04 04:45:07;;;;;;;2.10;2.10;;;;;;;20.03;98.98;96846.47;5021083;28;20052;-64
2023/09/04 04:47:34;;;;;;;2.05;2.05;;;;;;;20.04;100.00;96831.19;5022522;28;20065;-64
2023/09/04 04:50:00;;;;;;;1.92;1.92;;;;;;;19.84;99.94;96835.28;5022462;28;20523;-64
2023/09/04 04:52:27;;;;;;;1.88;1.88;;;;;;;19.99;100.00;96844.97;5022645;28;20050;-64
2023/09/04 04:54:54;;;;;;;1.95;1.95;;;;;;;20.11;100.00;96858.31;5022655;28;20569;-64
2023/09/04 04:57:20;;;;;;;1.83;1.83;;;;;;;20.16;98.24;96829.72;5022833;28;20057;-63
2023/09/04 04:59:47;;;;;;;2.15;2.15;;;;;;;20.33;97.29;96845.38;5022465;28;20175;-65
2023/09/04 05:02:16;;;;;;;2.30;2.30;;;;;;;20.04;93.49;96793.81;5022114;28;20144;-65
2023/09/04 05:04:46;;;;;;;2.20;2.20;;;;;;;20.50;94.17;96846.97;5022281;28;20057;-66
2023/09/04 05:07:14;;;;;;;2.05;2.05;;;;;;;20.62;93.82;96854.69;5022089;28;20057;-66
2023/09/04 05:09:41;;;;;;;2.05;2.05;;;;;;;20.66;92.70;96858.25;5021055;28;20080;-66
2023/09/04 05:12:07;;;;;;;2.42;2.38;;;;;;;20.59;91.17;96835.88;5022497;28;20161;-65
2023/09/04 05:14:34;;;;;;;2.20;2.20;;;;;;;20.84;89.65;96852.91;5020947;28;20049;-65
2023/09/04 05:17:01;;;;;;;2.60;2.50;;;;;;;20.53;90.08;96804.66;5022763;28;20049;-65
2023/09/04 05:19:29;;;;;;;2.17;2.17;;;;;;;20.75;90.53;96818.97;5022435;28;20045;-65
2023/09/04 05:21:55;;;;;;;2.47;2.38;;;;;;;20.62;88.85;96789.97;5022077;28;20046;-65
2023/09/04 05:24:23;;;;;;;2.20;2.20;;;;;;;20.75;89.65;96804.91;5020830;28;20053;-63
2023/09/04 05:26:50;;;;;;;2.55;2.45;;;;;;;21.15;87.85;96845.66;5023759;28;20049;-65
2023/09/04 05:29:17;;;;;;;2.17;2.17;;;;;;;21.17;87.23;96848.84;5024008;28;20049;-64
2023/09/04 05:31:43;;;;;;;2.10;2.10;;;;;;;20.79;86.84;96850.63;5023839;28;20065;-65
2023/09/04 05:34:10;;;;;;;1.90;1.90;;;;;;;20.53;90.54;96848.91;5023264;28;20049;-64
2023/09/04 05:36:37;;;;;;;1.80;1.80;;;;;;;20.66;90.58;96846.97;5023720;28;20156;-66
2023/09/04 05:39:04;;;;;;;2.00;2.00;;;;;;;20.74;92.26;96848.34;5022389;28;20158;-65
2023/09/04 05:41:31;;;;;;;2.20;2.20;;;;;;;20.99;89.83;96854.16;5023709;28;20045;-65
2023/09/04 05:43:58;;;;;;;2.20;2.20;;;;;;;21.01;89.13;96856.53;5023052;28;20512;-65
2023/09/04 05:46:24;;;;;;;2.10;2.10;;;;;;;20.43;90.00;96838.69;5022366;28;20046;-67
2023/09/04 05:48:51;;;;;;;2.22;2.22;;;;;;;20.70;87.22;96848.47;5021189;28;20285;-65
2023/09/04 05:51:18;;;;;;;2.13;2.13;;;;;;;20.87;83.29;96846.41;5020896;28;20045;-65
2023/09/04 05:53:45;;;;;;;2.00;2.00;;;;;;;21.05;81.43;96857.22;5022606;28;20439;-65
2023/09/04 05:56:11;;;;;;;2.28;2.28;;;;;;;21.02;80.56;96850.47;5021685;28;20066;-64
2023/09/04 05:58:43;;;;;;;2.30;2.30;;;;;;;20.50;83.63;96846.97;5021376;28;20589;-64
2023/09/04 06:01:09;;;;;;;1.95;1.95;;;;;;;20.94;83.79;96849.03;5022678;28;20042;-64
2023/09/04 06:03:36;;;;;;;2.30;2.30;;;;;;;20.55;81.17;96818.31;5014228;28;20049;-65
2023/09/04 06:06:03;;;;;;;1.85;1.85;;;;;;;20.70;80.79;96825.13;5012019;28;20049;-62
2023/09/04 06:08:30;;;;;;;2.10;2.10;;;;;;;20.53;79.67;96826.41;5018087;28;20056;-60
2023/09/04 06:10:57;;;;;;;2.28;2.28;;;;;;;20.20;80.80;96822.00;5019887;28;20056;-65
2023/09/04 06:13:24;;;;;;;2.08;2.08;;;;;;;19.57;77.29;96725.09;5021090;28;20524;-68
2023/09/04 06:15:51;;;;;;;2.50;2.40;;;;;;;19.95;79.53;96818.97;5018806;28;20049;-63
2023/09/04 06:18:22;;;;;;;1.80;1.80;;;;;;;20.35;81.00;96837.28;5010183;28;20051;-60
2023/09/04 06:20:51;;;;;;;1.98;1.98;;;;;;;20.42;81.56;96826.63;5011799;28;20056;-67
2023/09/04 06:23:17;;;;;;;2.17;2.17;;;;;;;20.98;83.06;96861.03;5020729;28;20059;-63
2023/09/04 06:25:46;;;;;;;2.17;2.17;;;;;;;20.52;82.42;96841.69;4999795;28;20057;-61
2023/09/04 06:28:13;;;;;;;2.03;2.03;;;;;;;19.97;87.41;96744.16;5013363;28;20045;-64
2023/09/04 06:30:40;;;;;;;2.03;2.03;;;;;;;20.70;87.92;96859.72;5007421;28;20136;-64
2023/09/04 06:33:07;;;;;;;2.08;2.08;;;;;;;21.06;85.25;96865.22;5024974;28;20166;-74
2023/09/04 06:35:34;;;;;;;2.28;2.28;;;;;;;21.31;85.33;96870.97;5019771;28;20050;-65
2023/09/04 06:38:01;;;;;;;2.50;2.40;;;;;;;21.40;87.17;96868.31;5021394;28;20049;-67
2023/09/04 06:40:27;;;;;;;2.50;2.40;;;;;;;21.34;87.50;96825.00;5021253;28;20045;-63
2023/09/04 06:42:54;;;;;;;2.10;2.10;;;;;;;20.79;89.57;96771.81;5020452;28;20052;-61
2023/09/04 06:45:21;;;;;;;2.05;2.05;;;;;;;21.05;88.65;96807.31;5020518;28;20057;-62
2023/09/04 06:47:49;;;;;;;2.42;2.33;;;;;;;21.36;88.69;96856.34;5015378;28;20104;-65
2023/09/04 06:50:17;;;;;;;2.60;2.50;;;;;;;21.47;88.00;96827.84;5004640;28;20640;-63
2023/09/04 06:52:44;;;;;;;2.33;2.30;;;;;;;21.96;85.93;96877.97;5016805;28;20045;-66
2023/09/04 06:55:11;;;;;;;2.50;2.40;;;;;;;22.02;85.35;96878.22;5015168;28;20150;-61
2023/09/04 06:57:38;;;;;;;2.40;2.30;;;;;;;21.21;83.25;96781.91;5020035;28;20049;-61
2023/09/04 07:00:10;;;;;;;2.10;2.10;;;;;;;21.57;84.30;96889.56;5007846;28;20057;-65
2023/09/04 07:02:37;;;;;;;2.40;2.30;;;;;;;20.14;83.51;96652.19;5008924;28;20076;-65
2023/09/04 07:05:07;;;;;;;2.20;2.20;;;;;;;21.31;85.18;96887.88;5030594;28;20060;-64
2023/09/04 07:07:37;;;;;;;2.50;2.40;;;;;;;20.04;83.93;96664.47;5014713;28;20053;-65
2023/09/04 07:10:05;;;;;;;2.20;2.20;;;;;;;21.41;84.75;96886.81;5018870;28;20057;-62
2023/09/04 07:12:34;;;;;;;2.22;2.22;;;;;;;21.33;84.79;96896.69;5018177;28;20507;-61
2023/09/04 07:15:01;;;;;;;2.47;2.38;;;;;;;21.41;83.16;96903.72;5018514;28;20483;-66
2023/09/04 07:17:28;;;;;;;2.25;2.25;;;;;;;21.32;83.75;96906.38;5017549;28;20041;-62
2023/09/04 07:19:54;;;;;;;2.00;2.00;;;;;;;21.30;84.77;96886.31;5019428;28;20053;-66
2023/09/04 07:22:21;;;;;;;2.20;2.20;;;;;;;21.42;83.03;96884.78;5020374;28;20050;-64
2023/09/04 07:24:48;;;;;;;2.15;2.15;;;;;;;20.87;84.58;96840.78;5038765;28;20058;-63
2023/09/04 07:27:15;;;;;;;2.20;2.20;;;;;;;21.71;82.80;96934.28;5024892;28;20128;-63
2023/09/04 07:29:41;;;;;;;2.22;2.22;;;;;;;21.15;80.58;96816.72;5018342;28;20041;-62
2023/09/04 07:32:08;;;;;;;2.20;2.20;;;;;;;21.49;81.50;96887.38;5013636;28;20046;-63
2023/09/04 07:34:35;;;;;;;2.20;2.20;;;;;;;21.66;83.55;96926.34;5021933;28;20054;-61
2023/09/04 07:37:02;;;;;;;2.35;2.33;;;;;;;21.08;84.45;96885.31;5022731;28;20542;-61
2023/09/04 07:39:29;;;;;;;2.03;2.03;;;;;;;20.79;86.71;96907.75;5020988;28;20516;-60
2023/09/04 07:41:56;;;;;;;2.22;2.22;;;;;;;20.51;87.29;96921.72;5023482;28;20059;-63
2023/09/04 07:44:22;;;;;;;2.17;2.17;;;;;;;20.39;92.40;96933.69;5022507;28;20068;-61
2023/09/04 07:46:49;;;;;;;2.20;2.20;;;;;;;20.52;93.58;96926.91;5024007;28;20161;-61
2023/09/04 07:49:19;;;;;;;2.22;2.22;;;;;;;20.48;91.55;96934.66;5021121;28;20560;-57
2023/09/04 07:51:46;;;;;;;2.20;2.20;;;;;;;19.30;94.51;96807.53;5023131;28;20579;-59
2023/09/04 07:54:12;;;;;;;2.08;2.08;;;;;;;19.97;97.75;96931.78;5026069;28;20111;-61
2023/09/04 07:56:39;;;;;;;1.90;1.90;;;;;;;19.80;100.00;96947.00;5023142;28;20061;-63
2023/09/04 07:59:09;;;;;;;2.10;2.10;;;;;;;19.19;100.00;96890.41;5022188;28;20072;-62
2023/09/04 08:01:35;;;;;;;2.08;2.08;;;;;;;19.23;100.00;96942.47;5019337;28;20137;-58
2023/09/04 08:04:02;;;;;;;1.98;1.98;;;;;;;19.47;100.00;96929.19;5018206;28;20056;-58
2023/09/04 08:06:29;;;;;;;1.80;1.80;;;;;;;19.12;100.00;96913.00;5020788;28;20152;-64
2023/09/04 08:08:56;;;;;;;1.70;1.70;;;;;;;19.33;100.00;96947.09;5008616;28;20576;-60
2023/09/04 08:11:23;;;;;;;2.22;2.22;;;;;;;19.52;100.00;96946.34;5010155;28;20433;-63
2023/09/04 08:13:50;;;;;;;1.92;1.92;;;;;;;19.64;100.00;96949.72;5021373;28;20049;-60
2023/09/04 08:16:16;;;;;;;2.20;2.20;;;;;;;19.14;100.00;96933.03;5022552;28;20052;-63
2023/09/04 08:18:43;;;;;;;2.00;2.00;;;;;;;19.38;100.00;96943.00;5022303;28;20427;-59
2023/09/04 08:21:10;;;;;;;2.10;2.10;;;;;;;19.53;100.00;96945.13;5023849;28;20148;-61
2023/09/04 08:23:37;;;;;;;2.00;2.00;;;;;;;19.22;100.00;96952.09;5022949;28;20524;-65
2023/09/04 08:26:04;;;;;;;1.80;1.80;;;;;;;19.19;100.00;96947.34;5023739;28;20084;-66
2023/09/04 08:28:31;;;;;;;1.98;1.98;;;;;;;19.27;100.00;96943.19;5024069;28;20056;-66
2023/09/04 08:30:57;;;;;;;2.08;2.08;;;;;;;19.24;100.00;96944.03;5021897;28;20140;-60
2023/09/04 08:33:24;;;;;;;1.80;1.80;;;;;;;19.51;100.00;96939.16;5019572;28;20050;-62
2023/09/04 08:35:51;;;;;;;1.85;1.85;;;;;;;19.34;100.00;96959.94;5024079;28;20556;-61
2023/09/04 08:38:18;;;;;;;2.13;2.13;;;;;;;19.72;100.00;96934.31;5023643;28;20124;-59
2023/09/04 08:40:46;;;;;;;1.85;1.85;;;;;;;19.97;100.00;96932.56;5023447;28;20172;-59
2023/09/04 08:43:15;;;;;;;2.13;2.13;;;;;;;20.03;100.00;96944.13;5022243;28;20034;-61
2023/09/04 08:45:43;;;;;;;1.90;1.90;;;;;;;20.05;100.00;96936.81;5023034;28;20053;-63
2023/09/04 08:48:12;;;;;;;2.15;2.15;;;;;;;20.13;100.00;96937.44;5022826;28;20512;-58
2023/09/04 08:50:40;;;;;;;1.88;1.88;;;;;;;19.72;100.00;96897.78;5023047;28;20056;-61
2023/09/04 08:53:07;;;;;;;1.85;1.85;;;;;;;19.93;99.90;96931.06;5021987;28;20077;-59
2023/09/04 08:55:34;;;;;;;2.45;2.40;;;;;;;19.60;100.00;96906.88;5023137;28;20057;-60
2023/09/04 08:58:03;;;;;;;1.98;1.98;;;;;;;19.83;100.00;96946.94;5022759;28;20060;-59
2023/09/04 09:00:30;;;;;;;2.10;2.10;;;;;;;19.94;100.00;96955.13;5022127;28;20057;-60
2023/09/04 09:02:58;;;;;;;2.15;2.15;;;;;;;19.84;100.00;96936.50;5022112;28;20128;-61
2023/09/04 09:05:29;;;;;;;2.00;2.00;;;;;;;19.81;100.00;96948.56;5022218;28;20080;-60
2023/09/04 09:07:56;;;;;;;2.05;2.05;;;;;;;19.80;99.24;96947.00;5021776;28;20156;-61
2023/09/04 09:10:23;;;;;;;2.22;2.22;;;;;;;20.07;100.00;96951.25;5023209;28;20059;-61
2023/09/04 09:12:50;;;;;;;1.83;1.83;;;;;;;20.06;100.00;96954.50;5022665;28;20172;-62
2023/09/04 09:15:18;;;;;;;1.98;1.98;;;;;;;20.07;100.00;96956.06;5008798;28;20075;-61
2023/09/04 09:17:49;;;;;;;2.00;2.00;;;;;;;18.26;100.00;96654.03;5006810;28;20076;-61
2023/09/04 09:20:30;;;;;;;2.13;2.13;;;;;;;19.84;100.00;96951.31;5021049;28;20130;-61
2023/09/04 09:22:58;;;;;;;2.00;2.00;;;;;;;19.33;100.00;96952.72;5015741;28;20045;-61
2023/09/04 09:25:25;;;;;;;2.20;2.20;;;;;;;18.76;100.00;96910.00;5018850;28;20081;-62
2023/09/04 09:27:58;;;;;;;1.75;1.75;;;;;;;19.31;100.00;96948.78;5007328;28;20052;-61
2023/09/04 09:30:25;;;;;;;2.07;2.07;;;;;;;19.50;100.00;96917.09;5018194;28;20057;-61
2023/09/04 09:32:54;;;;;;;1.85;1.85;;;;;;;20.05;100.00;96938.81;5004785;28;20045;-62
2023/09/04 09:35:21;;;;;;;1.98;1.98;;;;;;;19.77;100.00;96947.88;5019486;28;20422;-62
2023/09/04 09:37:48;;;;;;;2.00;2.00;;;;;;;19.74;100.00;96945.94;5008094;28;20091;-62
2023/09/04 09:40:14;;;;;;;1.90;1.90;;;;;;;20.14;100.00;96939.84;5014339;28;20046;-62
2023/09/04 09:42:41;;;;;;;2.20;2.20;;;;;;;20.56;100.00;96938.09;5011509;28;20049;-62
2023/09/04 09:45:08;;;;;;;2.00;2.00;;;;;;;20.77;97.98;96931.97;5010499;28;20777;-63
2023/09/04 09:47:35;;;;;;;2.10;2.10;;;;;;;20.59;92.23;96898.59;5004781;28;20050;-61
2023/09/04 09:50:04;;;;;;;2.15;2.15;;;;;;;20.96;92.79;96933.88;4993792;28;20403;-57
2023/09/04 09:52:30;;;;;;;2.13;2.13;;;;;;;20.59;90.59;96897.81;4999186;28;20050;-61
2023/09/04 09:54:57;;;;;;;2.20;2.20;;;;;;;20.99;88.92;96933.03;4993813;28;20054;-61
2023/09/04 09:57:26;;;;;;;2.20;2.20;;;;;;;20.48;90.43;96818.47;4990079;28;20057;-63
2023/09/04 09:59:52;;;;;;;2.05;2.05;;;;;;;21.17;92.98;96927.72;4998723;28;20049;-62
2023/09/04 10:02:21;;;;;;;2.20;2.20;;;;;;;21.35;94.89;96939.31;4998626;28;20049;-66
2023/09/04 10:04:49;;;;;;;2.38;2.30;;;;;;;21.37;90.79;96930.41;5000104;28;20061;-60
2023/09/04 10:07:17;;;;;;;2.22;2.22;;;;;;;20.89;93.27;96928.41;5002534;28;20054;-66
2023/09/04 10:09:46;;;;;;;2.03;2.03;;;;;;;20.99;91.58;96924.59;5002057;28;20423;-66
2023/09/04 10:12:32;;;;;;;2.10;2.10;;;;;;;19.72;89.31;96692.59;5001115;28;20519;-60
2023/09/04 10:15:01;;;;;;;2.17;2.17;;;;;;;21.47;89.08;96935.75;4999258;28;20046;-64
2023/09/04 10:17:40;;;;;;;2.50;2.40;;;;;;;19.73;93.00;96772.91;4999667;28;20062;-66
2023/09/04 10:20:09;;;;;;;2.03;2.03;;;;;;;20.39;94.55;96875.34;4983296;28;20408;-62
2023/09/04 10:22:37;;;;;;;2.50;2.40;;;;;;;20.31;96.99;96932.25;4982858;28;20058;-59
2023/09/04 10:25:20;;;;;;;1.98;1.98;;;;;;;20.21;98.05;96938.91;5001701;28;20060;-66
2023/09/04 10:28:02;;;;;;;2.13;2.13;;;;;;;17.62;100.00;96589.19;5001753;28;20049;-65
2023/09/04 10:30:34;;;;;;;2.00;2.00;;;;;;;19.37;100.00;96931.00;5001265;28;20513;-59
2023/09/04 10:33:02;;;;;;;2.08;2.08;;;;;;;19.05;100.00;96854.94;5000235;28;20080;-58
2023/09/04 10:35:29;;;;;;;2.03;2.03;;;;;;;19.55;100.00;96937.03;5000921;28;20045;-59
2023/09/04 10:37:57;;;;;;;1.95;1.95;;;;;;;19.58;100.00;96934.59;5000906;28;20041;-59
2023/09/04 10:40:24;;;;;;;1.83;1.83;;;;;;;18.91;100.00;96899.31;5000205;28;20690;-59
2023/09/04 10:42:51;;;;;;;1.67;1.67;;;;;;;19.28;100.00;96936.38;5000315;28;20052;-60
2023/09/04 10:45:18;;;;;;;2.00;2.00;;;;;;;19.23;100.00;96941.66;4999906;28;20062;-66
2023/09/04 10:47:46;;;;;;;1.77;1.77;;;;;;;18.53;100.00;96921.22;5000428;28;20072;-59
2023/09/04 10:50:35;;;;;;;1.70;1.70;;;;;;;18.70;100.00;96953.81;5000259;28;20050;-59
2023/09/04 10:53:04;;;;;;;1.90;1.90;;;;;;;18.76;100.00;96946.50;4998346;28;20733;-61
2023/09/04 10:55:36;;;;;;;1.80;1.80;;;;;;;18.48;100.00;96958.16;5005810;28;20073;-59
2023/09/04 10:58:05;;;;;;;1.80;1.80;;;;;;;17.69;97.17;96911.19;5006687;28;20145;-59
2023/09/04 11:00:36;;;;;;;1.70;1.70;;;;;;;17.63;97.46;96899.69;5006921;28;20060;-59
2023/09/04 11:03:19;;;;;;;1.92;1.92;;;;;;;18.03;95.36;96942.78;5004495;28;20049;-59
2023/09/04 11:06:01;;;;;;;1.67;1.67;;;;;;;18.29;96.89;96956.03;4987832;28;20060;-58
2023/09/04 11:08:29;;;;;;;1.80;1.80;;;;;;;18.66;98.45;96964.31;4994681;28;20041;-60
2023/09/04 11:11:01;;;;;;;1.70;1.70;;;;;;;19.32;98.97;96961.59;4999391;28;20456;-59
2023/09/04 11:13:28;;;;;;;2.00;2.00;;;;;;;19.53;92.36;96933.91;4997240;28;20057;-69
2023/09/04 11:15:56;;;;;;;1.90;1.90;;;;;;;19.67;95.06;96895.47;4997597;28;20054;-61
2023/09/04 11:18:28;;;;;;;1.70;1.70;;;;;;;20.16;85.75;96959.09;4993535;28;20426;-61
2023/09/04 11:20:56;;;;;;;1.77;1.77;;;;;;;20.30;86.02;96947.53;5005414;28;20054;-61
2023/09/04 11:23:27;;;;;;;2.00;2.00;;;;;;;20.15;86.61;96895.66;5005965;28;20155;-62
2023/09/04 11:25:55;;;;;;;1.92;1.92;;;;;;;20.30;78.33;96927.84;5004809;28;20058;-62
2023/09/04 11:28:24;;;;;;;1.90;1.90;;;;;;;20.83;75.17;96938.63;5005447;28;20064;-61
2023/09/04 11:30:53;;;;;;;2.10;2.10;;;;;;;20.92;73.96;96933.16;4991862;28;20213;-61
2023/09/04 11:33:22;;;;;;;2.25;2.25;;;;;;;20.35;75.76;96921.69;4990500;28;20062;-62